sensor_id;sensor_type;location;lat;lon;timestamp;P1;durP1;ratioP1;P2;durP2;ratioP2
72639;SDS011;60683;51.730;8.762;2022-08-19T00:00:17;10.23;;;6.63;;
72639;SDS011;60683;51.730;8.762;2022-08-19T00:03:03;13.15;;;6.70;;
72639;SDS011;60683;51.730;8.762;2022-08-19T00:05:30;8.63;;;6.20;;
72639;SDS011;60683;51.730;8.762;2022-08-19T00:07:58;9.20;;;6.72;;
72639;SDS011;60683;51.730;8.762;2022-08-19T00:10:26;9.35;;;6.70;;
72639;SDS011;60683;51.730;8.762;2022-08-19T00:12:54;10.40;;;6.50;;
72639;SDS011;60683;51.730;8.762;2022-08-19T00:15:21;10.43;;;6.65;;
72639;SDS011;60683;51.730;8.762;2022-08-19T00:17:49;11.30;;;6.53;;
72639;SDS011;60683;51.730;8.762;2022-08-19T00:20:19;9.13;;;6.50;;
72639;SDS011;60683;51.730;8.762;2022-08-19T00:22:47;10.15;;;6.88;;
72639;SDS011;60683;51.730;8.762;2022-08-19T00:25:15;12.20;;;6.95;;
72639;SDS011;60683;51.730;8.762;2022-08-19T00:27:44;11.27;;;6.57;;
72639;SDS011;60683;51.730;8.762;2022-08-19T00:30:11;10.02;;;6.45;;
72639;SDS011;60683;51.730;8.762;2022-08-19T00:32:39;8.50;;;5.78;;
72639;SDS011;60683;51.730;8.762;2022-08-19T00:35:07;7.65;;;6.10;;
72639;SDS011;60683;51.730;8.762;2022-08-19T00:37:36;11.32;;;6.70;;
72639;SDS011;60683;51.730;8.762;2022-08-19T00:40:09;9.95;;;6.78;;
72639;SDS011;60683;51.730;8.762;2022-08-19T00:42:39;12.07;;;6.57;;
72639;SDS011;60683;51.730;8.762;2022-08-19T00:45:09;11.45;;;6.65;;
72639;SDS011;60683;51.730;8.762;2022-08-19T00:47:39;11.10;;;6.68;;
72639;SDS011;60683;51.730;8.762;2022-08-19T00:50:06;11.23;;;5.72;;
72639;SDS011;60683;51.730;8.762;2022-08-19T00:52:37;10.57;;;6.82;;
72639;SDS011;60683;51.730;8.762;2022-08-19T00:55:13;11.65;;;6.57;;
72639;SDS011;60683;51.730;8.762;2022-08-19T00:57:42;9.80;;;7.00;;
72639;SDS011;60683;51.730;8.762;2022-08-19T01:02:42;10.27;;;6.70;;
72639;SDS011;60683;51.730;8.762;2022-08-19T01:05:11;9.13;;;6.43;;
72639;SDS011;60683;51.730;8.762;2022-08-19T01:07:42;9.57;;;7.18;;
72639;SDS011;60683;51.730;8.762;2022-08-19T01:10:11;10.80;;;7.25;;
72639;SDS011;60683;51.730;8.762;2022-08-19T01:12:40;9.90;;;6.32;;
72639;SDS011;60683;51.730;8.762;2022-08-19T01:15:08;11.85;;;7.03;;
72639;SDS011;60683;51.730;8.762;2022-08-19T01:17:38;8.93;;;6.38;;
72639;SDS011;60683;51.730;8.762;2022-08-19T01:20:08;12.05;;;7.45;;
72639;SDS011;60683;51.730;8.762;2022-08-19T01:22:39;16.13;;;7.82;;
72639;SDS011;60683;51.730;8.762;2022-08-19T01:25:12;12.20;;;7.05;;
72639;SDS011;60683;51.730;8.762;2022-08-19T01:27:40;12.20;;;6.68;;
72639;SDS011;60683;51.730;8.762;2022-08-19T01:30:09;11.40;;;6.60;;
72639;SDS011;60683;51.730;8.762;2022-08-19T01:32:38;10.50;;;7.03;;
72639;SDS011;60683;51.730;8.762;2022-08-19T01:35:06;13.43;;;7.50;;
72639;SDS011;60683;51.730;8.762;2022-08-19T01:37:42;10.38;;;6.60;;
72639;SDS011;60683;51.730;8.762;2022-08-19T01:40:13;12.43;;;7.60;;
72639;SDS011;60683;51.730;8.762;2022-08-19T01:42:40;11.63;;;6.82;;
72639;SDS011;60683;51.730;8.762;2022-08-19T01:45:08;15.95;;;7.93;;
72639;SDS011;60683;51.730;8.762;2022-08-19T01:47:36;11.55;;;6.88;;
72639;SDS011;60683;51.730;8.762;2022-08-19T01:50:05;11.82;;;7.50;;
72639;SDS011;60683;51.730;8.762;2022-08-19T01:52:35;11.13;;;7.43;;
72639;SDS011;60683;51.730;8.762;2022-08-19T01:55:06;15.95;;;8.75;;
72639;SDS011;60683;51.730;8.762;2022-08-19T01:57:35;10.20;;;6.80;;
72639;SDS011;60683;51.730;8.762;2022-08-19T02:00:04;14.40;;;7.70;;
72639;SDS011;60683;51.730;8.762;2022-08-19T02:02:33;11.55;;;7.32;;
72639;SDS011;60683;51.730;8.762;2022-08-19T02:05:01;8.70;;;6.32;;
72639;SDS011;60683;51.730;8.762;2022-08-19T02:07:28;10.80;;;7.05;;
72639;SDS011;60683;51.730;8.762;2022-08-19T02:09:56;11.15;;;7.43;;
72639;SDS011;60683;51.730;8.762;2022-08-19T02:12:24;11.73;;;8.07;;
72639;SDS011;60683;51.730;8.762;2022-08-19T02:14:51;12.85;;;7.88;;
72639;SDS011;60683;51.730;8.762;2022-08-19T02:17:19;11.93;;;7.43;;
72639;SDS011;60683;51.730;8.762;2022-08-19T02:19:46;13.80;;;7.95;;
72639;SDS011;60683;51.730;8.762;2022-08-19T02:22:14;14.75;;;9.02;;
72639;SDS011;60683;51.730;8.762;2022-08-19T02:24:42;12.32;;;7.80;;
72639;SDS011;60683;51.730;8.762;2022-08-19T02:27:09;11.77;;;7.45;;
72639;SDS011;60683;51.730;8.762;2022-08-19T02:29:38;13.35;;;8.30;;
72639;SDS011;60683;51.730;8.762;2022-08-19T02:32:05;13.00;;;7.90;;
72639;SDS011;60683;51.730;8.762;2022-08-19T02:34:33;12.25;;;7.63;;
72639;SDS011;60683;51.730;8.762;2022-08-19T02:37:00;12.05;;;7.80;;
72639;SDS011;60683;51.730;8.762;2022-08-19T02:39:28;11.80;;;7.75;;
72639;SDS011;60683;51.730;8.762;2022-08-19T02:41:54;10.52;;;7.68;;
72639;SDS011;60683;51.730;8.762;2022-08-19T02:44:21;12.07;;;7.45;;
72639;SDS011;60683;51.730;8.762;2022-08-19T02:46:50;10.95;;;8.18;;
72639;SDS011;60683;51.730;8.762;2022-08-19T02:49:18;15.65;;;8.15;;
72639;SDS011;60683;51.730;8.762;2022-08-19T02:51:46;11.35;;;8.05;;
72639;SDS011;60683;51.730;8.762;2022-08-19T02:54:14;15.43;;;8.57;;
72639;SDS011;60683;51.730;8.762;2022-08-19T02:56:42;12.65;;;7.45;;
72639;SDS011;60683;51.730;8.762;2022-08-19T02:59:10;13.38;;;8.13;;
72639;SDS011;60683;51.730;8.762;2022-08-19T03:01:38;13.00;;;7.65;;
72639;SDS011;60683;51.730;8.762;2022-08-19T03:04:08;13.40;;;7.75;;
72639;SDS011;60683;51.730;8.762;2022-08-19T03:06:37;14.02;;;7.65;;
72639;SDS011;60683;51.730;8.762;2022-08-19T03:09:05;13.38;;;7.75;;
72639;SDS011;60683;51.730;8.762;2022-08-19T03:11:33;14.07;;;8.18;;
72639;SDS011;60683;51.730;8.762;2022-08-19T03:14:01;14.02;;;8.63;;
72639;SDS011;60683;51.730;8.762;2022-08-19T03:16:30;14.13;;;8.40;;
72639;SDS011;60683;51.730;8.762;2022-08-19T03:18:58;14.20;;;8.32;;
72639;SDS011;60683;51.730;8.762;2022-08-19T03:21:28;16.30;;;9.98;;
72639;SDS011;60683;51.730;8.762;2022-08-19T03:23:58;21.30;;;10.15;;
72639;SDS011;60683;51.730;8.762;2022-08-19T03:28:55;19.10;;;10.30;;
72639;SDS011;60683;51.730;8.762;2022-08-19T03:31:23;19.13;;;10.70;;
72639;SDS011;60683;51.730;8.762;2022-08-19T03:33:51;19.90;;;11.90;;
72639;SDS011;60683;51.730;8.762;2022-08-19T03:36:19;22.42;;;11.98;;
72639;SDS011;60683;51.730;8.762;2022-08-19T03:38:51;25.30;;;11.77;;
72639;SDS011;60683;51.730;8.762;2022-08-19T03:41:20;22.40;;;12.27;;
72639;SDS011;60683;51.730;8.762;2022-08-19T03:43:50;21.25;;;12.48;;
72639;SDS011;60683;51.730;8.762;2022-08-19T03:46:18;18.63;;;12.07;;
72639;SDS011;60683;51.730;8.762;2022-08-19T03:48:48;21.77;;;12.18;;
72639;SDS011;60683;51.730;8.762;2022-08-19T03:51:20;20.52;;;12.55;;
72639;SDS011;60683;51.730;8.762;2022-08-19T03:53:52;22.17;;;12.95;;
72639;SDS011;60683;51.730;8.762;2022-08-19T03:56:20;23.15;;;12.95;;
72639;SDS011;60683;51.730;8.762;2022-08-19T03:58:47;21.00;;;13.13;;
72639;SDS011;60683;51.730;8.762;2022-08-19T04:01:15;22.35;;;12.55;;
72639;SDS011;60683;51.730;8.762;2022-08-19T04:03:45;20.92;;;12.75;;
72639;SDS011;60683;51.730;8.762;2022-08-19T04:06:14;27.83;;;13.95;;
72639;SDS011;60683;51.730;8.762;2022-08-19T04:08:44;24.23;;;12.25;;
72639;SDS011;60683;51.730;8.762;2022-08-19T04:11:15;25.33;;;13.52;;
72639;SDS011;60683;51.730;8.762;2022-08-19T04:13:46;26.27;;;13.82;;
72639;SDS011;60683;51.730;8.762;2022-08-19T04:16:13;25.95;;;14.52;;
72639;SDS011;60683;51.730;8.762;2022-08-19T04:18:41;25.92;;;14.70;;
72639;SDS011;60683;51.730;8.762;2022-08-19T04:21:08;26.70;;;13.02;;
72639;SDS011;60683;51.730;8.762;2022-08-19T04:23:35;23.10;;;13.00;;
72639;SDS011;60683;51.730;8.762;2022-08-19T04:26:02;24.27;;;13.90;;
72639;SDS011;60683;51.730;8.762;2022-08-19T04:28:31;25.52;;;14.52;;
72639;SDS011;60683;51.730;8.762;2022-08-19T04:31:00;22.70;;;14.07;;
72639;SDS011;60683;51.730;8.762;2022-08-19T04:33:27;24.33;;;13.80;;
72639;SDS011;60683;51.730;8.762;2022-08-19T04:35:54;22.83;;;13.52;;
72639;SDS011;60683;51.730;8.762;2022-08-19T04:38:24;27.27;;;14.95;;
72639;SDS011;60683;51.730;8.762;2022-08-19T04:40:51;24.02;;;13.88;;
72639;SDS011;60683;51.730;8.762;2022-08-19T04:43:38;27.40;;;14.45;;
72639;SDS011;60683;51.730;8.762;2022-08-19T04:46:07;25.38;;;14.10;;
72639;SDS011;60683;51.730;8.762;2022-08-19T04:48:36;27.55;;;15.25;;
72639;SDS011;60683;51.730;8.762;2022-08-19T04:51:05;26.55;;;14.65;;
72639;SDS011;60683;51.730;8.762;2022-08-19T04:53:35;26.67;;;16.35;;
72639;SDS011;60683;51.730;8.762;2022-08-19T04:56:04;27.77;;;13.95;;
72639;SDS011;60683;51.730;8.762;2022-08-19T04:58:34;32.20;;;15.68;;
72639;SDS011;60683;51.730;8.762;2022-08-19T05:01:03;27.27;;;15.65;;
72639;SDS011;60683;51.730;8.762;2022-08-19T05:03:31;26.48;;;15.23;;
72639;SDS011;60683;51.730;8.762;2022-08-19T05:06:03;24.08;;;13.95;;
72639;SDS011;60683;51.730;8.762;2022-08-19T05:08:33;27.23;;;15.23;;
72639;SDS011;60683;51.730;8.762;2022-08-19T05:11:01;26.08;;;15.27;;
72639;SDS011;60683;51.730;8.762;2022-08-19T05:13:33;26.38;;;15.38;;
72639;SDS011;60683;51.730;8.762;2022-08-19T05:16:01;24.10;;;14.68;;
72639;SDS011;60683;51.730;8.762;2022-08-19T05:18:29;29.17;;;14.02;;
72639;SDS011;60683;51.730;8.762;2022-08-19T05:21:15;24.65;;;14.82;;
72639;SDS011;60683;51.730;8.762;2022-08-19T05:24:02;24.67;;;15.00;;
72639;SDS011;60683;51.730;8.762;2022-08-19T05:26:33;26.23;;;15.25;;
72639;SDS011;60683;51.730;8.762;2022-08-19T05:29:00;27.23;;;14.50;;
72639;SDS011;60683;51.730;8.762;2022-08-19T05:31:28;23.90;;;14.27;;
72639;SDS011;60683;51.730;8.762;2022-08-19T05:33:57;26.77;;;14.02;;
72639;SDS011;60683;51.730;8.762;2022-08-19T05:36:25;25.48;;;14.05;;
72639;SDS011;60683;51.730;8.762;2022-08-19T05:38:53;24.40;;;14.57;;
72639;SDS011;60683;51.730;8.762;2022-08-19T05:41:21;22.60;;;14.82;;
72639;SDS011;60683;51.730;8.762;2022-08-19T05:43:56;21.42;;;13.23;;
72639;SDS011;60683;51.730;8.762;2022-08-19T05:46:23;25.00;;;12.85;;
72639;SDS011;60683;51.730;8.762;2022-08-19T05:48:51;24.30;;;13.90;;
72639;SDS011;60683;51.730;8.762;2022-08-19T05:51:21;24.52;;;12.50;;
72639;SDS011;60683;51.730;8.762;2022-08-19T05:53:49;21.25;;;12.02;;
72639;SDS011;60683;51.730;8.762;2022-08-19T05:56:16;21.92;;;12.65;;
72639;SDS011;60683;51.730;8.762;2022-08-19T05:58:44;25.67;;;13.45;;
72639;SDS011;60683;51.730;8.762;2022-08-19T06:01:13;20.73;;;13.25;;
72639;SDS011;60683;51.730;8.762;2022-08-19T06:03:41;23.45;;;14.13;;
72639;SDS011;60683;51.730;8.762;2022-08-19T06:06:11;22.85;;;13.00;;
72639;SDS011;60683;51.730;8.762;2022-08-19T06:08:41;22.23;;;13.27;;
72639;SDS011;60683;51.730;8.762;2022-08-19T06:11:12;24.17;;;14.82;;
72639;SDS011;60683;51.730;8.762;2022-08-19T06:13:41;22.50;;;13.45;;
72639;SDS011;60683;51.730;8.762;2022-08-19T06:16:08;23.80;;;13.50;;
72639;SDS011;60683;51.730;8.762;2022-08-19T06:18:35;29.05;;;13.38;;
72639;SDS011;60683;51.730;8.762;2022-08-19T06:21:03;23.30;;;13.55;;
72639;SDS011;60683;51.730;8.762;2022-08-19T06:23:30;23.98;;;13.93;;
72639;SDS011;60683;51.730;8.762;2022-08-19T06:25:59;26.33;;;14.75;;
72639;SDS011;60683;51.730;8.762;2022-08-19T06:28:26;23.85;;;14.20;;
72639;SDS011;60683;51.730;8.762;2022-08-19T06:30:53;26.27;;;14.10;;
72639;SDS011;60683;51.730;8.762;2022-08-19T06:33:21;21.70;;;13.20;;
72639;SDS011;60683;51.730;8.762;2022-08-19T06:35:48;23.75;;;14.95;;
72639;SDS011;60683;51.730;8.762;2022-08-19T06:38:15;24.30;;;14.57;;
72639;SDS011;60683;51.730;8.762;2022-08-19T06:40:43;22.77;;;14.02;;
72639;SDS011;60683;51.730;8.762;2022-08-19T06:43:11;24.60;;;13.95;;
72639;SDS011;60683;51.730;8.762;2022-08-19T06:45:39;23.95;;;13.05;;
72639;SDS011;60683;51.730;8.762;2022-08-19T06:48:06;22.50;;;13.10;;
72639;SDS011;60683;51.730;8.762;2022-08-19T06:50:34;23.67;;;12.70;;
72639;SDS011;60683;51.730;8.762;2022-08-19T06:53:02;21.38;;;12.65;;
72639;SDS011;60683;51.730;8.762;2022-08-19T06:55:31;26.17;;;13.13;;
72639;SDS011;60683;51.730;8.762;2022-08-19T06:58:01;24.80;;;14.43;;
72639;SDS011;60683;51.730;8.762;2022-08-19T07:00:30;22.70;;;12.80;;
72639;SDS011;60683;51.730;8.762;2022-08-19T07:02:58;22.63;;;12.48;;
72639;SDS011;60683;51.730;8.762;2022-08-19T07:05:26;20.42;;;12.57;;
72639;SDS011;60683;51.730;8.762;2022-08-19T07:07:53;20.25;;;12.27;;
72639;SDS011;60683;51.730;8.762;2022-08-19T07:10:20;20.55;;;11.73;;
72639;SDS011;60683;51.730;8.762;2022-08-19T07:12:48;20.33;;;11.70;;
72639;SDS011;60683;51.730;8.762;2022-08-19T07:15:15;25.42;;;13.52;;
72639;SDS011;60683;51.730;8.762;2022-08-19T07:17:44;20.02;;;11.75;;
72639;SDS011;60683;51.730;8.762;2022-08-19T07:20:13;20.25;;;12.25;;
72639;SDS011;60683;51.730;8.762;2022-08-19T07:22:40;20.45;;;11.35;;
72639;SDS011;60683;51.730;8.762;2022-08-19T07:25:08;22.27;;;12.85;;
72639;SDS011;60683;51.730;8.762;2022-08-19T07:27:36;19.65;;;11.48;;
72639;SDS011;60683;51.730;8.762;2022-08-19T07:30:04;20.88;;;11.65;;
72639;SDS011;60683;51.730;8.762;2022-08-19T07:32:32;25.45;;;13.80;;
72639;SDS011;60683;51.730;8.762;2022-08-19T07:35:01;20.75;;;11.52;;
72639;SDS011;60683;51.730;8.762;2022-08-19T07:37:29;21.63;;;12.00;;
72639;SDS011;60683;51.730;8.762;2022-08-19T07:39:56;16.77;;;11.27;;
72639;SDS011;60683;51.730;8.762;2022-08-19T07:42:23;19.75;;;11.27;;
72639;SDS011;60683;51.730;8.762;2022-08-19T07:44:51;21.13;;;12.10;;
72639;SDS011;60683;51.730;8.762;2022-08-19T07:47:18;20.25;;;13.27;;
72639;SDS011;60683;51.730;8.762;2022-08-19T07:49:45;17.70;;;10.85;;
72639;SDS011;60683;51.730;8.762;2022-08-19T07:52:14;17.25;;;10.55;;
72639;SDS011;60683;51.730;8.762;2022-08-19T07:54:42;18.60;;;10.60;;
72639;SDS011;60683;51.730;8.762;2022-08-19T07:57:09;16.00;;;10.48;;
72639;SDS011;60683;51.730;8.762;2022-08-19T07:59:37;16.00;;;10.50;;
72639;SDS011;60683;51.730;8.762;2022-08-19T08:02:04;18.75;;;10.35;;
72639;SDS011;60683;51.730;8.762;2022-08-19T08:04:33;18.63;;;10.32;;
72639;SDS011;60683;51.730;8.762;2022-08-19T08:07:19;17.52;;;10.40;;
72639;SDS011;60683;51.730;8.762;2022-08-19T08:10:04;17.17;;;9.50;;
72639;SDS011;60683;51.730;8.762;2022-08-19T08:12:33;18.33;;;10.45;;
72639;SDS011;60683;51.730;8.762;2022-08-19T08:15:08;17.85;;;11.05;;
72639;SDS011;60683;51.730;8.762;2022-08-19T08:17:37;18.17;;;10.40;;
72639;SDS011;60683;51.730;8.762;2022-08-19T08:20:05;14.50;;;8.95;;
72639;SDS011;60683;51.730;8.762;2022-08-19T08:22:35;16.92;;;10.35;;
72639;SDS011;60683;51.730;8.762;2022-08-19T08:25:20;16.00;;;9.27;;
72639;SDS011;60683;51.730;8.762;2022-08-19T08:27:48;12.13;;;8.13;;
72639;SDS011;60683;51.730;8.762;2022-08-19T08:30:17;16.77;;;8.73;;
72639;SDS011;60683;51.730;8.762;2022-08-19T08:32:46;13.98;;;8.50;;
72639;SDS011;60683;51.730;8.762;2022-08-19T08:35:15;12.50;;;8.65;;
72639;SDS011;60683;51.730;8.762;2022-08-19T08:37:45;15.05;;;8.38;;
72639;SDS011;60683;51.730;8.762;2022-08-19T08:40:26;13.07;;;7.85;;
72639;SDS011;60683;51.730;8.762;2022-08-19T08:42:57;12.10;;;7.68;;
72639;SDS011;60683;51.730;8.762;2022-08-19T08:45:28;12.20;;;7.70;;
72639;SDS011;60683;51.730;8.762;2022-08-19T08:47:56;12.55;;;7.65;;
72639;SDS011;60683;51.730;8.762;2022-08-19T08:50:27;9.95;;;6.60;;
72639;SDS011;60683;51.730;8.762;2022-08-19T08:52:58;9.68;;;6.18;;
72639;SDS011;60683;51.730;8.762;2022-08-19T08:55:26;9.00;;;5.85;;
72639;SDS011;60683;51.730;8.762;2022-08-19T08:57:55;11.57;;;6.53;;
72639;SDS011;60683;51.730;8.762;2022-08-19T09:00:27;9.95;;;6.35;;
72639;SDS011;60683;51.730;8.762;2022-08-19T09:02:59;8.52;;;6.00;;
72639;SDS011;60683;51.730;8.762;2022-08-19T09:05:30;7.95;;;5.00;;
72639;SDS011;60683;51.730;8.762;2022-08-19T09:08:04;9.65;;;6.55;;
72639;SDS011;60683;51.730;8.762;2022-08-19T09:10:37;8.50;;;6.72;;
72639;SDS011;60683;51.730;8.762;2022-08-19T09:13:07;10.25;;;6.70;;
72639;SDS011;60683;51.730;8.762;2022-08-19T09:15:43;9.20;;;6.35;;
72639;SDS011;60683;51.730;8.762;2022-08-19T09:18:13;8.77;;;5.78;;
72639;SDS011;60683;51.730;8.762;2022-08-19T09:20:42;10.68;;;6.25;;
72639;SDS011;60683;51.730;8.762;2022-08-19T09:23:11;9.57;;;6.45;;
72639;SDS011;60683;51.730;8.762;2022-08-19T09:25:38;11.32;;;5.25;;
72639;SDS011;60683;51.730;8.762;2022-08-19T09:28:06;7.40;;;4.88;;
72639;SDS011;60683;51.730;8.762;2022-08-19T09:30:34;7.30;;;5.55;;
72639;SDS011;60683;51.730;8.762;2022-08-19T09:33:06;9.80;;;5.07;;
72639;SDS011;60683;51.730;8.762;2022-08-19T09:35:34;10.82;;;6.50;;
72639;SDS011;60683;51.730;8.762;2022-08-19T09:38:02;10.85;;;7.68;;
72639;SDS011;60683;51.730;8.762;2022-08-19T09:40:31;10.70;;;6.15;;
72639;SDS011;60683;51.730;8.762;2022-08-19T09:42:58;8.88;;;5.50;;
72639;SDS011;60683;51.730;8.762;2022-08-19T09:45:28;10.43;;;3.95;;
72639;SDS011;60683;51.730;8.762;2022-08-19T09:47:55;5.93;;;3.92;;
72639;SDS011;60683;51.730;8.762;2022-08-19T09:50:23;6.75;;;4.30;;
72639;SDS011;60683;51.730;8.762;2022-08-19T09:52:51;7.32;;;4.18;;
72639;SDS011;60683;51.730;8.762;2022-08-19T09:55:22;5.65;;;3.60;;
72639;SDS011;60683;51.730;8.762;2022-08-19T09:57:54;9.45;;;4.10;;
72639;SDS011;60683;51.730;8.762;2022-08-19T10:00:21;7.57;;;5.05;;
72639;SDS011;60683;51.730;8.762;2022-08-19T10:02:49;8.48;;;4.95;;
72639;SDS011;60683;51.730;8.762;2022-08-19T10:05:16;8.93;;;4.40;;
72639;SDS011;60683;51.730;8.762;2022-08-19T10:08:01;5.65;;;3.83;;
72639;SDS011;60683;51.730;8.762;2022-08-19T10:10:29;6.90;;;4.18;;
72639;SDS011;60683;51.730;8.762;2022-08-19T10:12:57;7.40;;;3.85;;
72639;SDS011;60683;51.730;8.762;2022-08-19T10:15:25;6.30;;;4.45;;
72639;SDS011;60683;51.730;8.762;2022-08-19T10:17:52;5.80;;;4.43;;
72639;SDS011;60683;51.730;8.762;2022-08-19T10:20:19;6.05;;;4.35;;
72639;SDS011;60683;51.730;8.762;2022-08-19T10:22:47;6.47;;;3.28;;
72639;SDS011;60683;51.730;8.762;2022-08-19T10:25:15;6.25;;;4.30;;
72639;SDS011;60683;51.730;8.762;2022-08-19T10:27:43;7.63;;;4.20;;
72639;SDS011;60683;51.730;8.762;2022-08-19T10:30:12;6.28;;;3.88;;
72639;SDS011;60683;51.730;8.762;2022-08-19T10:35:07;7.05;;;4.18;;
72639;SDS011;60683;51.730;8.762;2022-08-19T10:37:35;5.43;;;3.50;;
72639;SDS011;60683;51.730;8.762;2022-08-19T10:40:03;5.35;;;3.63;;
72639;SDS011;60683;51.730;8.762;2022-08-19T10:42:34;5.22;;;3.63;;
72639;SDS011;60683;51.730;8.762;2022-08-19T10:45:02;6.47;;;4.55;;
72639;SDS011;60683;51.730;8.762;2022-08-19T10:47:33;5.60;;;3.80;;
72639;SDS011;60683;51.730;8.762;2022-08-19T10:50:00;7.50;;;4.15;;
72639;SDS011;60683;51.730;8.762;2022-08-19T10:52:46;10.30;;;4.40;;
72639;SDS011;60683;51.730;8.762;2022-08-19T10:55:14;8.23;;;4.28;;
72639;SDS011;60683;51.730;8.762;2022-08-19T10:58:00;7.53;;;4.18;;
72639;SDS011;60683;51.730;8.762;2022-08-19T11:00:27;5.05;;;3.97;;
72639;SDS011;60683;51.730;8.762;2022-08-19T11:02:58;6.28;;;4.40;;
72639;SDS011;60683;51.730;8.762;2022-08-19T11:05:25;7.15;;;3.92;;
72639;SDS011;60683;51.730;8.762;2022-08-19T11:07:52;6.85;;;4.28;;
72639;SDS011;60683;51.730;8.762;2022-08-19T11:10:20;5.57;;;3.80;;
72639;SDS011;60683;51.730;8.762;2022-08-19T11:12:47;6.22;;;4.20;;
72639;SDS011;60683;51.730;8.762;2022-08-19T11:15:19;7.35;;;4.22;;
72639;SDS011;60683;51.730;8.762;2022-08-19T11:17:47;6.25;;;3.83;;
72639;SDS011;60683;51.730;8.762;2022-08-19T11:20:16;7.70;;;4.07;;
72639;SDS011;60683;51.730;8.762;2022-08-19T11:22:43;7.28;;;4.65;;
72639;SDS011;60683;51.730;8.762;2022-08-19T11:25:10;6.72;;;4.65;;
72639;SDS011;60683;51.730;8.762;2022-08-19T11:27:39;6.93;;;4.68;;
72639;SDS011;60683;51.730;8.762;2022-08-19T11:30:08;7.53;;;4.43;;
72639;SDS011;60683;51.730;8.762;2022-08-19T11:32:37;6.65;;;4.15;;
72639;SDS011;60683;51.730;8.762;2022-08-19T11:35:04;5.22;;;3.60;;
72639;SDS011;60683;51.730;8.762;2022-08-19T11:37:33;5.93;;;3.47;;
72639;SDS011;60683;51.730;8.762;2022-08-19T11:40:03;5.82;;;3.58;;
72639;SDS011;60683;51.730;8.762;2022-08-19T11:42:31;6.53;;;3.85;;
72639;SDS011;60683;51.730;8.762;2022-08-19T11:45:16;7.40;;;3.60;;
72639;SDS011;60683;51.730;8.762;2022-08-19T11:47:44;5.53;;;3.60;;
72639;SDS011;60683;51.730;8.762;2022-08-19T11:50:12;6.72;;;3.63;;
72639;SDS011;60683;51.730;8.762;2022-08-19T11:52:41;4.75;;;3.50;;
72639;SDS011;60683;51.730;8.762;2022-08-19T11:55:09;4.50;;;3.20;;
72639;SDS011;60683;51.730;8.762;2022-08-19T11:57:37;5.60;;;3.35;;
72639;SDS011;60683;51.730;8.762;2022-08-19T12:00:04;5.93;;;2.42;;
72639;SDS011;60683;51.730;8.762;2022-08-19T12:02:33;4.10;;;2.70;;
72639;SDS011;60683;51.730;8.762;2022-08-19T12:05:00;4.03;;;2.28;;
72639;SDS011;60683;51.730;8.762;2022-08-19T12:07:28;4.70;;;2.80;;
72639;SDS011;60683;51.730;8.762;2022-08-19T12:10:00;3.35;;;2.28;;
72639;SDS011;60683;51.730;8.762;2022-08-19T12:12:27;6.03;;;3.03;;
72639;SDS011;60683;51.730;8.762;2022-08-19T12:14:55;4.72;;;2.40;;
72639;SDS011;60683;51.730;8.762;2022-08-19T12:17:24;4.10;;;2.55;;
72639;SDS011;60683;51.730;8.762;2022-08-19T12:19:52;4.72;;;2.72;;
72639;SDS011;60683;51.730;8.762;2022-08-19T12:22:19;3.72;;;2.38;;
72639;SDS011;60683;51.730;8.762;2022-08-19T12:24:47;3.83;;;2.00;;
72639;SDS011;60683;51.730;8.762;2022-08-19T12:27:17;4.40;;;2.53;;
72639;SDS011;60683;51.730;8.762;2022-08-19T12:29:45;4.10;;;2.25;;
72639;SDS011;60683;51.730;8.762;2022-08-19T12:32:12;5.65;;;2.13;;
72639;SDS011;60683;51.730;8.762;2022-08-19T12:34:40;4.55;;;2.47;;
72639;SDS011;60683;51.730;8.762;2022-08-19T12:37:07;3.85;;;1.83;;
72639;SDS011;60683;51.730;8.762;2022-08-19T12:39:36;3.88;;;2.28;;
72639;SDS011;60683;51.730;8.762;2022-08-19T12:42:05;4.55;;;2.00;;
72639;SDS011;60683;51.730;8.762;2022-08-19T12:44:35;3.50;;;2.35;;
72639;SDS011;60683;51.730;8.762;2022-08-19T12:47:03;5.53;;;2.38;;
72639;SDS011;60683;51.730;8.762;2022-08-19T12:49:31;5.03;;;2.40;;
72639;SDS011;60683;51.730;8.762;2022-08-19T12:52:02;4.03;;;2.10;;
72639;SDS011;60683;51.730;8.762;2022-08-19T12:54:30;3.97;;;2.40;;
72639;SDS011;60683;51.730;8.762;2022-08-19T12:56:57;3.70;;;2.70;;
72639;SDS011;60683;51.730;8.762;2022-08-19T12:59:25;4.00;;;2.90;;
72639;SDS011;60683;51.730;8.762;2022-08-19T13:01:54;4.60;;;2.22;;
72639;SDS011;60683;51.730;8.762;2022-08-19T13:04:22;5.68;;;2.22;;
72639;SDS011;60683;51.730;8.762;2022-08-19T13:06:49;4.22;;;2.70;;
72639;SDS011;60683;51.730;8.762;2022-08-19T13:09:16;6.00;;;2.88;;
72639;SDS011;60683;51.730;8.762;2022-08-19T13:11:44;5.55;;;2.40;;
72639;SDS011;60683;51.730;8.762;2022-08-19T13:14:11;4.13;;;2.22;;
72639;SDS011;60683;51.730;8.762;2022-08-19T13:16:38;6.28;;;2.80;;
72639;SDS011;60683;51.730;8.762;2022-08-19T13:19:08;5.00;;;2.85;;
72639;SDS011;60683;51.730;8.762;2022-08-19T13:21:36;3.58;;;2.63;;
72639;SDS011;60683;51.730;8.762;2022-08-19T13:24:04;4.57;;;2.83;;
72639;SDS011;60683;51.730;8.762;2022-08-19T13:26:31;5.50;;;2.83;;
72639;SDS011;60683;51.730;8.762;2022-08-19T13:28:59;4.30;;;2.50;;
72639;SDS011;60683;51.730;8.762;2022-08-19T13:31:44;4.15;;;2.63;;
72639;SDS011;60683;51.730;8.762;2022-08-19T13:34:30;3.78;;;2.85;;
72639;SDS011;60683;51.730;8.762;2022-08-19T13:36:59;4.50;;;2.72;;
72639;SDS011;60683;51.730;8.762;2022-08-19T13:39:28;4.45;;;3.13;;
72639;SDS011;60683;51.730;8.762;2022-08-19T13:41:56;4.30;;;2.67;;
72639;SDS011;60683;51.730;8.762;2022-08-19T13:44:25;5.85;;;2.78;;
72639;SDS011;60683;51.730;8.762;2022-08-19T13:46:52;4.75;;;2.92;;
72639;SDS011;60683;51.730;8.762;2022-08-19T13:49:19;6.47;;;3.00;;
72639;SDS011;60683;51.730;8.762;2022-08-19T13:51:50;4.85;;;2.85;;
72639;SDS011;60683;51.730;8.762;2022-08-19T13:54:17;4.45;;;2.90;;
72639;SDS011;60683;51.730;8.762;2022-08-19T13:56:45;5.03;;;3.25;;
72639;SDS011;60683;51.730;8.762;2022-08-19T13:59:12;3.92;;;2.70;;
72639;SDS011;60683;51.730;8.762;2022-08-19T14:01:40;4.55;;;2.83;;
72639;SDS011;60683;51.730;8.762;2022-08-19T14:04:07;6.20;;;2.70;;
72639;SDS011;60683;51.730;8.762;2022-08-19T14:06:35;5.88;;;3.35;;
72639;SDS011;60683;51.730;8.762;2022-08-19T14:09:04;6.05;;;3.22;;
72639;SDS011;60683;51.730;8.762;2022-08-19T14:11:31;4.00;;;2.63;;
72639;SDS011;60683;51.730;8.762;2022-08-19T14:13:58;5.68;;;3.25;;
72639;SDS011;60683;51.730;8.762;2022-08-19T14:16:26;5.35;;;3.10;;
72639;SDS011;60683;51.730;8.762;2022-08-19T14:21:23;5.32;;;2.92;;
72639;SDS011;60683;51.730;8.762;2022-08-19T14:23:51;5.03;;;3.03;;
72639;SDS011;60683;51.730;8.762;2022-08-19T14:26:20;4.97;;;2.90;;
72639;SDS011;60683;51.730;8.762;2022-08-19T14:31:16;6.03;;;3.30;;
72639;SDS011;60683;51.730;8.762;2022-08-19T14:33:45;5.28;;;3.15;;
72639;SDS011;60683;51.730;8.762;2022-08-19T14:36:13;6.00;;;3.22;;
72639;SDS011;60683;51.730;8.762;2022-08-19T14:38:40;5.45;;;3.25;;
72639;SDS011;60683;51.730;8.762;2022-08-19T14:41:09;4.80;;;3.20;;
72639;SDS011;60683;51.730;8.762;2022-08-19T14:43:41;4.82;;;3.20;;
72639;SDS011;60683;51.730;8.762;2022-08-19T14:46:08;4.85;;;3.22;;
72639;SDS011;60683;51.730;8.762;2022-08-19T14:48:36;4.75;;;3.10;;
72639;SDS011;60683;51.730;8.762;2022-08-19T14:51:04;4.60;;;3.40;;
72639;SDS011;60683;51.730;8.762;2022-08-19T14:53:32;7.03;;;3.22;;
72639;SDS011;60683;51.730;8.762;2022-08-19T14:56:00;5.60;;;3.13;;
72639;SDS011;60683;51.730;8.762;2022-08-19T14:58:28;5.50;;;3.50;;